Time;durP1;ratioP1;P1;durP2;ratioP2;P2;SDS_P1;SDS_P2;PMS_P1;PMS_P2;Temp;Humidity;BMP_temperature;BMP_pressure;BME280_temperature;BME280_humidity;BME280_pressure;Samples;Min_cycle;Max_cycle;Signal;HPM_P1;HPM_P2
2022/07/27 00:02:13;;;;;;;2.92;0.98;;;;;;;19.08;48.57;100567.31;4993939;28;20077;-63
2022/07/27 00:04:41;;;;;;;4.35;1.23;;;;;;;19.08;48.51;100569.34;4993553;28;20061;-63
2022/07/27 00:07:09;;;;;;;2.92;1.52;;;;;;;19.06;48.57;100561.22;4983506;28;20514;-63
2022/07/27 00:09:36;;;;;;;4.60;1.23;;;;;;;19.02;48.86;100557.50;4973947;28;20064;-63
2022/07/27 00:12:07;;;;;;;4.60;1.10;;;;;;;19.04;49.27;100567.25;4976099;28;20058;-63
2022/07/27 00:14:34;;;;;;;3.88;1.40;;;;;;;19.04;49.13;100552.31;4993191;28;20050;-64
2022/07/27 00:17:01;;;;;;;4.88;1.25;;;;;;;19.01;49.38;100565.16;4984994;28;20051;-63
2022/07/27 00:19:29;;;;;;;4.60;1.23;;;;;;;19.00;49.15;100557.91;4974209;28;20066;-63
2022/07/27 00:21:58;;;;;;;3.72;1.27;;;;;;;18.97;49.23;100558.63;4973892;28;20058;-63
2022/07/27 00:24:25;;;;;;;;;;;;;;;18.89;49.46;100559.66;4976548;28;20396;-63
2022/07/27 00:26:52;;;;;;;6.07;1.42;;;;;;;18.81;49.62;100563.50;4990235;28;19929;-63
2022/07/27 00:29:20;;;;;;;6.70;1.13;;;;;;;18.73;49.89;100570.13;4992954;28;20073;-63
2022/07/27 00:31:53;;;;;;;4.75;1.33;;;;;;;18.71;49.69;100570.50;4992948;28;20058;-63
2022/07/27 00:34:21;;;;;;;3.15;1.30;;;;;;;18.69;50.02;100572.03;4993168;28;20065;-63
2022/07/27 00:36:48;;;;;;;4.80;1.33;;;;;;;18.61;50.15;100566.25;4990384;28;20061;-63
2022/07/27 00:39:20;;;;;;;2.80;1.10;;;;;;;18.57;50.48;100567.34;4992885;28;20395;-63
2022/07/27 00:41:47;;;;;;;3.83;1.20;;;;;;;18.53;50.74;100567.25;4992829;28;20061;-63
2022/07/27 00:44:24;;;;;;;4.72;1.27;;;;;;;18.50;50.67;100565.19;4992003;28;20054;-63
2022/07/27 00:46:51;;;;;;;2.72;1.05;;;;;;;18.41;50.69;100564.53;4990754;28;20055;-63
2022/07/27 00:49:18;;;;;;;4.72;1.23;;;;;;;18.35;50.99;100566.84;4992933;28;20065;-63
2022/07/27 00:51:46;;;;;;;3.15;1.20;;;;;;;18.34;51.01;100555.91;4992936;28;20073;-63
2022/07/27 00:54:13;;;;;;;2.72;1.00;;;;;;;18.23;51.51;100570.56;4992417;28;20418;-63
2022/07/27 00:56:44;;;;;;;3.05;1.13;;;;;;;18.23;51.64;100570.56;4983504;28;20046;-63
2022/07/27 00:59:12;;;;;;;3.00;1.10;;;;;;;18.15;51.84;100576.41;4973495;28;20515;-64
2022/07/27 01:01:42;;;;;;;3.67;1.13;;;;;;;18.14;51.95;100566.28;4973550;28;20055;-64
2022/07/27 01:04:09;;;;;;;;;;;;;;;18.08;52.08;100568.56;4973871;28;20360;-63
2022/07/27 01:06:37;;;;;;;3.92;1.20;;;;;;;18.09;52.33;100560.94;4984310;28;20302;-63
2022/07/27 01:11:50;;;;;;;3.40;1.45;;;;;;;18.12;52.27;100575.13;4996668;28;20065;-63
2022/07/27 01:14:18;;;;;;;1.93;1.10;;;;;;;18.09;52.32;100573.00;4992512;28;20058;-63
2022/07/27 01:16:45;;;;;;;3.65;1.20;;;;;;;18.11;52.53;100575.47;4987455;28;20054;-63
2022/07/27 01:19:14;;;;;;;4.28;1.55;;;;;;;18.12;52.20;100569.50;4992247;28;20415;-63
2022/07/27 01:21:44;;;;;;;3.72;1.10;;;;;;;18.10;52.09;100566.22;4992615;28;20411;-63
2022/07/27 01:24:12;;;;;;;3.53;1.25;;;;;;;18.10;52.60;100565.38;4992304;28;20058;-63
2022/07/27 01:26:39;;;;;;;3.95;1.30;;;;;;;18.08;52.30;100557.31;4989250;28;20434;-63
2022/07/27 01:29:06;;;;;;;4.32;1.10;;;;;;;18.07;53.06;100561.28;4992088;28;20058;-63
2022/07/27 01:31:34;;;;;;;3.65;1.23;;;;;;;18.03;52.86;100568.84;4992327;28;20419;-64
2022/07/27 01:34:01;;;;;;;2.95;1.00;;;;;;;18.02;52.59;100565.19;4992263;28;20058;-63
2022/07/27 01:36:29;;;;;;;3.72;1.33;;;;;;;18.03;52.69;100563.19;4990121;28;20050;-63
2022/07/27 01:38:58;;;;;;;3.55;1.10;;;;;;;18.04;52.58;100559.22;4990545;28;20061;-64
2022/07/27 01:41:25;;;;;;;3.73;1.20;;;;;;;17.97;53.10;100557.00;4991135;28;20054;-63
2022/07/27 01:43:52;;;;;;;4.85;1.30;;;;;;;17.93;53.50;100546.81;4992380;28;20484;-63
2022/07/27 01:46:20;;;;;;;4.20;1.20;;;;;;;17.93;53.78;100558.94;4990887;28;20134;-63
2022/07/27 01:48:47;;;;;;;4.57;1.25;;;;;;;17.88;53.66;100553.53;4991534;28;20058;-64
2022/07/27 01:51:14;;;;;;;3.05;1.33;;;;;;;17.84;53.76;100559.06;4992604;28;20054;-64
2022/07/27 01:53:42;;;;;;;5.85;1.27;;;;;;;17.84;53.83;100566.72;4993339;28;20046;-64
2022/07/27 01:56:11;;;;;;;2.13;1.05;;;;;;;17.79;53.99;100562.16;4996057;28;20414;-64
2022/07/27 01:58:41;;;;;;;3.75;1.38;;;;;;;17.79;54.18;100559.31;4991565;28;20164;-63
2022/07/27 02:01:08;;;;;;;3.90;1.60;;;;;;;17.80;54.20;100560.94;4996325;28;20069;-63
2022/07/27 02:03:36;;;;;;;3.42;1.75;;;;;;;17.79;54.51;100562.16;4996035;28;20050;-64
2022/07/27 02:06:04;;;;;;;6.07;1.40;;;;;;;17.75;54.38;100564.03;4995816;28;20487;-64
2022/07/27 02:08:33;;;;;;;3.17;1.38;;;;;;;17.76;54.23;100562.03;4991544;28;20058;-63
2022/07/27 02:13:47;;;;;;;3.60;1.30;;;;;;;17.70;54.07;100558.69;5001372;28;20061;-63
2022/07/27 02:16:14;;;;;;;4.43;1.10;;;;;;;17.69;54.27;100562.66;4996309;28;20057;-64
2022/07/27 02:18:42;;;;;;;2.55;1.20;;;;;;;17.69;54.36;100559.84;4991546;28;20057;-65
2022/07/27 02:21:10;;;;;;;4.82;1.42;;;;;;;17.69;54.48;100565.50;4995323;28;20058;-64
2022/07/27 02:23:38;;;;;;;3.00;1.20;;;;;;;17.67;54.42;100558.59;4995376;28;20050;-63
2022/07/27 02:26:07;;;;;;;2.50;1.20;;;;;;;17.66;54.66;100563.41;4995658;28;20065;-64
2022/07/27 02:28:35;;;;;;;3.97;1.25;;;;;;;17.67;54.77;100555.78;4991129;28;20069;-63
2022/07/27 02:31:04;;;;;;;4.07;1.48;;;;;;;17.69;54.63;100553.41;4995335;28;20065;-64
2022/07/27 02:33:32;;;;;;;4.20;1.50;;;;;;;17.71;54.60;100560.31;4995375;28;20065;-64
2022/07/27 02:35:59;;;;;;;2.88;1.40;;;;;;;17.72;55.27;100564.75;4995322;28;20838;-63
2022/07/27 02:38:26;;;;;;;3.53;1.25;;;;;;;17.73;55.46;100569.22;4992039;28;20058;-64
2022/07/27 02:40:54;;;;;;;3.75;1.40;;;;;;;17.68;55.82;100566.69;4991113;28;20411;-64
2022/07/27 02:43:21;;;;;;;3.33;1.40;;;;;;;17.60;56.13;100559.22;4995621;28;20054;-64
2022/07/27 02:45:48;;;;;;;2.83;1.17;;;;;;;17.61;56.06;100567.28;4994960;28;20050;-65
2022/07/27 02:48:17;;;;;;;2.72;1.25;;;;;;;17.61;55.67;100564.47;4993879;28;20057;-63
2022/07/27 02:50:44;;;;;;;2.53;1.23;;;;;;;17.55;55.82;100565.09;4993835;28;20069;-64
2022/07/27 02:53:12;;;;;;;4.97;1.10;;;;;;;17.57;56.15;100563.53;4995081;28;20389;-63
2022/07/27 02:55:39;;;;;;;4.60;1.60;;;;;;;17.55;56.22;100574.34;4995013;28;20483;-64
2022/07/27 02:58:06;;;;;;;3.38;1.30;;;;;;;17.55;56.24;100570.72;4994731;28;20388;-64
2022/07/27 03:00:34;;;;;;;4.88;1.30;;;;;;;17.52;56.48;100569.44;4992150;28;20069;-63
2022/07/27 03:03:01;;;;;;;2.63;1.10;;;;;;;17.51;56.80;100576.25;4994806;28;20065;-64
2022/07/27 03:05:30;;;;;;;2.92;1.30;;;;;;;17.48;57.17;100571.34;4994703;28;20058;-64
2022/07/27 03:07:57;;;;;;;2.63;1.00;;;;;;;17.40;57.47;100567.50;4994834;28;20380;-63
2022/07/27 03:10:24;;;;;;;3.97;1.30;;;;;;;17.33;57.78;100570.13;4991932;28;20073;-64
2022/07/27 03:12:52;;;;;;;3.47;1.02;;;;;;;17.25;57.86;100568.28;4994460;28;20066;-64
2022/07/27 03:15:19;;;;;;;2.28;1.15;;;;;;;17.16;57.92;100570.44;4994831;28;20058;-64
2022/07/27 03:17:46;;;;;;;4.22;1.38;;;;;;;17.03;58.50;100580.91;4994458;28;20487;-63
2022/07/27 03:20:14;;;;;;;3.45;1.42;;;;;;;16.94;58.48;100583.00;4992071;28;20073;-64
2022/07/27 03:22:43;;;;;;;3.33;1.33;;;;;;;16.82;58.63;100575.44;4994307;28;20065;-64
2022/07/27 03:25:10;;;;;;;3.53;1.50;;;;;;;16.67;59.06;100573.31;4994378;28;20065;-64
2022/07/27 03:27:37;;;;;;;6.25;2.00;;;;;;;16.64;59.32;100572.03;4994249;28;20054;-64
2022/07/27 03:30:06;;;;;;;3.47;1.20;;;;;;;16.42;60.03;100573.31;4992620;28;20054;-64
2022/07/27 03:32:33;;;;;;;5.27;1.83;;;;;;;16.41;59.86;100578.13;4994097;28;20501;-64
2022/07/27 03:35:06;;;;;;;4.18;1.60;;;;;;;16.35;60.39;100567.47;4994154;28;20069;-64
2022/07/27 03:37:34;;;;;;;4.03;1.67;;;;;;;16.18;60.83;100571.31;4993616;28;20057;-63
2022/07/27 03:40:03;;;;;;;3.67;1.50;;;;;;;16.09;61.50;100574.25;4992507;28;20061;-64
2022/07/27 03:42:30;;;;;;;3.58;1.35;;;;;;;16.04;61.53;100577.25;4994170;28;20058;-64
2022/07/27 03:45:00;;;;;;;5.78;2.17;;;;;;;15.96;62.02;100578.22;4993893;28;20459;-64
2022/07/27 03:47:27;;;;;;;4.32;1.50;;;;;;;15.92;62.11;100585.69;4994040;28;20046;-65
2022/07/27 03:49:54;;;;;;;3.20;1.50;;;;;;;15.87;62.13;100586.72;4987200;28;20054;-64
2022/07/27 03:52:22;;;;;;;2.38;1.33;;;;;;;15.82;62.37;100579.34;4993791;28;20498;-64
2022/07/27 03:54:49;;;;;;;3.15;1.60;;;;;;;15.77;62.58;100579.56;4993580;28;20061;-64
2022/07/27 03:57:18;;;;;;;2.17;1.20;;;;;;;15.76;62.33;100569.50;4993765;28;20077;-64
2022/07/27 03:59:45;;;;;;;2.80;1.20;;;;;;;15.71;62.50;100572.50;4990707;28;20055;-62
2022/07/27 04:02:14;;;;;;;5.43;1.30;;;;;;;15.66;62.34;100571.91;4993502;28;20065;-64
2022/07/27 04:04:42;;;;;;;3.90;1.35;;;;;;;15.58;62.91;100573.63;4993630;28;20054;-64
2022/07/27 04:07:12;;;;;;;3.75;1.73;;;;;;;15.57;63.28;100588.84;4993352;28;20407;-64
2022/07/27 04:09:39;;;;;;;3.58;1.30;;;;;;;15.53;63.88;100576.66;4989767;28;20427;-64
2022/07/27 04:12:06;;;;;;;4.53;1.30;;;;;;;15.56;63.79;100589.97;4993078;28;20054;-64
2022/07/27 04:14:35;;;;;;;3.00;1.40;;;;;;;15.58;63.79;100591.31;4993274;28;20491;-64
2022/07/27 04:17:03;;;;;;;3.17;1.30;;;;;;;15.65;63.55;100590.75;4992699;28;20050;-64
2022/07/27 04:19:30;;;;;;;2.60;1.40;;;;;;;15.71;63.56;100592.16;4991201;28;20054;-63
2022/07/27 04:21:57;;;;;;;2.85;1.60;;;;;;;15.79;63.38;100588.47;4989160;28;20152;-64
2022/07/27 04:24:28;;;;;;;2.50;1.55;;;;;;;15.91;63.02;100598.09;4991572;28;20050;-64
2022/07/27 04:26:58;;;;;;;2.58;1.00;;;;;;;15.88;63.15;100596.81;4990937;28;20061;-64
2022/07/27 04:29:25;;;;;;;;;;;;;;;15.99;62.75;100599.97;4993386;28;20069;-64
2022/07/27 04:31:53;;;;;;;3.38;1.65;;;;;;;16.08;62.60;100597.06;4993314;28;20374;-64
2022/07/27 04:34:21;;;;;;;4.55;1.42;;;;;;;16.16;62.63;100598.94;4993197;28;20057;-64
2022/07/27 04:36:50;;;;;;;3.97;1.40;;;;;;;16.08;62.59;100603.50;4987469;28;20395;-64
2022/07/27 04:39:17;;;;;;;3.55;1.30;;;;;;;16.13;62.63;100600.47;4992699;28;20054;-64
2022/07/27 04:41:45;;;;;;;5.00;1.67;;;;;;;16.16;62.48;100604.56;4981748;28;20496;-64
2022/07/27 04:44:13;;;;;;;3.20;1.60;;;;;;;16.17;62.33;100604.22;4973569;28;20054;-64
2022/07/27 04:46:40;;;;;;;4.30;1.50;;;;;;;16.17;62.67;100607.03;4982724;28;20491;-64
2022/07/27 04:49:09;;;;;;;4.45;1.40;;;;;;;16.19;62.53;100603.88;4992591;28;20061;-65
2022/07/27 04:51:38;;;;;;;5.10;2.00;;;;;;;16.19;62.38;100612.28;4992698;28;20054;-64
2022/07/27 04:54:05;;;;;;;2.88;1.40;;;;;;;16.15;62.47;100611.38;4989317;28;20481;-64
2022/07/27 04:56:32;;;;;;;3.78;1.80;;;;;;;16.09;62.75;100610.78;4989571;28;20066;-65
2022/07/27 04:59:00;;;;;;;4.60;2.00;;;;;;;16.14;62.50;100618.16;4979910;28;20054;-63
2022/07/27 05:01:27;;;;;;;6.32;1.98;;;;;;;16.20;62.36;100611.94;4973371;28;20055;-64
2022/07/27 05:03:55;;;;;;;4.20;2.15;;;;;;;16.21;62.49;100609.97;4982963;28;20046;-63
2022/07/27 05:06:24;;;;;;;3.05;2.10;;;;;;;16.20;62.65;100614.75;4990628;28;20073;-64
2022/07/27 05:08:51;;;;;;;3.72;1.80;;;;;;;16.21;62.71;100605.19;4983876;28;20418;-64
2022/07/27 05:11:19;;;;;;;3.95;2.13;;;;;;;16.23;62.72;100616.88;4986930;28;20419;-64
2022/07/27 05:13:46;;;;;;;5.13;2.28;;;;;;;16.15;63.60;100625.44;4989437;28;20058;-48
2022/07/27 05:16:13;;;;;;;3.70;2.20;;;;;;;16.23;63.20;100622.50;4988041;28;20054;-48
2022/07/27 05:18:41;;;;;;;5.43;2.45;;;;;;;16.24;63.12;100628.94;4989372;28;21158;-47
2022/07/27 05:21:09;;;;;;;4.45;2.25;;;;;;;16.16;63.62;100638.28;4989504;28;20407;-49
2022/07/27 05:23:40;;;;;;;6.45;2.40;;;;;;;16.30;63.20;100632.38;4990853;28;20054;-46
2022/07/27 05:26:08;;;;;;;4.78;2.40;;;;;;;16.32;62.86;100635.66;4990151;28;20050;-48
2022/07/27 05:28:35;;;;;;;4.00;2.33;;;;;;;16.44;63.04;100628.03;4980090;28;20050;-48
2022/07/27 05:31:02;;;;;;;7.72;2.50;;;;;;;16.62;62.09;100622.97;4989108;28;20069;-48
2022/07/27 05:33:30;;;;;;;5.22;2.50;;;;;;;16.75;61.87;100629.44;4991434;28;20057;-48
2022/07/27 05:35:58;;;;;;;6.70;3.13;;;;;;;16.72;61.57;100632.16;4988373;28;20073;-47
2022/07/27 05:38:25;;;;;;;5.03;2.47;;;;;;;16.78;61.20;100628.72;4988134;28;20043;-47
2022/07/27 05:40:54;;;;;;;5.30;2.70;;;;;;;16.75;60.52;100632.25;4996051;28;20062;-48
2022/07/27 05:43:21;;;;;;;2.57;1.83;;;;;;;16.93;59.86;100629.22;4988725;28;20503;-48
2022/07/27 05:45:49;;;;;;;5.80;2.00;;;;;;;16.98;59.64;100629.78;4996195;28;20050;-48
2022/07/27 05:48:16;;;;;;;4.47;1.58;;;;;;;16.99;59.32;100639.06;4993226;28;20057;-50
2022/07/27 05:50:43;;;;;;;4.78;1.73;;;;;;;17.02;59.04;100639.16;4995783;28;20058;-49
2022/07/27 05:53:11;;;;;;;3.83;1.80;;;;;;;17.06;59.37;100633.66;4995742;28;20554;-48
2022/07/27 05:55:39;;;;;;;5.82;1.90;;;;;;;17.22;58.30;100639.38;4995666;28;20050;-48
2022/07/27 05:58:07;;;;;;;6.13;2.40;;;;;;;17.23;58.49;100646.63;4995174;28;20526;-47
2022/07/27 06:00:35;;;;;;;5.17;2.17;;;;;;;17.45;57.75;100648.09;4994476;28;20059;-64
2022/07/27 06:03:02;;;;;;;5.20;1.73;;;;;;;17.53;57.30;100640.66;4995897;28;20106;-64
2022/07/27 06:05:29;;;;;;;4.50;2.00;;;;;;;17.62;56.79;100642.16;4995774;28;20054;-64
2022/07/27 06:07:58;;;;;;;3.42;1.75;;;;;;;17.60;56.46;100643.72;4991374;28;20057;-63
2022/07/27 06:10:27;;;;;;;4.82;2.08;;;;;;;17.66;56.32;100639.47;4990073;28;20154;-64
2022/07/27 06:12:54;;;;;;;4.43;2.00;;;;;;;17.69;56.00;100644.38;4994846;28;20061;-60
2022/07/27 06:15:24;;;;;;;3.60;1.95;;;;;;;17.82;55.67;100650.75;4995531;28;20059;-60
2022/07/27 06:17:52;;;;;;;;;;;;;;;17.79;55.64;100652.31;4996216;28;20050;-60
2022/07/27 06:20:21;;;;;;;3.83;1.67;;;;;;;17.83;55.45;100650.44;4990465;28;19929;-59
2022/07/27 06:22:52;;;;;;;4.80;2.03;;;;;;;17.94;54.86;100653.56;4986114;28;20418;-59
2022/07/27 06:25:23;;;;;;;6.00;2.15;;;;;;;18.07;54.68;100653.50;4995542;28;20054;-59
2022/07/27 06:27:51;;;;;;;5.65;2.00;;;;;;;18.18;54.34;100651.78;4994894;28;20381;-61
2022/07/27 06:30:21;;;;;;;8.68;1.83;;;;;;;18.29;53.73;100657.69;4992546;28;20431;-61
2022/07/27 06:32:50;;;;;;;5.13;1.60;;;;;;;18.40;52.84;100647.53;4994996;28;20533;-60
2022/07/27 06:35:17;;;;;;;2.63;1.30;;;;;;;18.41;52.75;100663.25;4995133;28;20061;-60
2022/07/27 06:37:47;;;;;;;5.50;1.90;;;;;;;18.52;52.89;100655.91;4994663;28;20468;-60
2022/07/27 06:40:14;;;;;;;5.68;1.63;;;;;;;18.69;51.62;100660.34;4986627;28;20054;-60
2022/07/27 06:42:42;;;;;;;4.32;1.30;;;;;;;18.75;51.58;100658.91;4976465;28;20066;-59
2022/07/27 06:45:10;;;;;;;3.92;1.58;;;;;;;18.85;51.13;100663.19;4994901;28;20510;-60
2022/07/27 06:47:39;;;;;;;5.00;1.57;;;;;;;19.04;50.77;100657.59;4994809;28;20055;-61
2022/07/27 06:50:09;;;;;;;6.03;1.50;;;;;;;19.22;50.66;100665.66;4992141;28;20496;-60
2022/07/27 06:52:36;;;;;;;3.40;1.20;;;;;;;19.45;50.28;100660.94;4994409;28;20058;-60
2022/07/27 06:55:04;;;;;;;3.63;1.35;;;;;;;19.61;49.13;100657.22;4994514;28;20419;-59
2022/07/27 06:57:31;;;;;;;4.10;1.52;;;;;;;19.83;48.92;100667.81;4994830;28;20061;-60
2022/07/27 06:59:59;;;;;;;4.38;1.45;;;;;;;19.83;48.39;100659.31;4993054;28;20058;-58
2022/07/27 07:02:26;;;;;;;5.18;1.50;;;;;;;20.00;48.36;100665.72;4992075;28;20134;-61
2022/07/27 07:04:54;;;;;;;7.05;1.50;;;;;;;20.26;48.17;100657.34;4994499;28;20073;-59
2022/07/27 07:07:22;;;;;;;3.40;1.30;;;;;;;20.46;47.33;100662.94;4994832;28;20058;-60
2022/07/27 07:09:50;;;;;;;5.15;1.67;;;;;;;20.66;46.47;100658.03;4994261;28;20050;-60
2022/07/27 07:12:17;;;;;;;3.47;1.52;;;;;;;20.92;46.14;100668.56;4991970;28;20174;-60
2022/07/27 07:14:45;;;;;;;4.70;1.60;;;;;;;20.99;45.61;100665.84;4994505;28;20510;-60
2022/07/27 07:17:12;;;;;;;5.50;1.40;;;;;;;21.12;45.27;100671.28;4994443;28;20401;-60
2022/07/27 07:19:40;;;;;;;3.63;1.42;;;;;;;21.31;44.52;100662.66;4994197;28;20065;-60
2022/07/27 07:22:07;;;;;;;4.90;1.60;;;;;;;21.49;43.62;100666.59;4986493;28;20061;-60
2022/07/27 07:24:36;;;;;;;3.92;1.30;;;;;;;21.74;43.54;100663.28;4993031;28;20054;-60
2022/07/27 07:27:03;;;;;;;4.43;2.88;;;;;;;21.77;42.38;100664.50;4994318;28;20054;-60
2022/07/27 07:29:31;;;;;;;4.05;3.05;;;;;;;21.94;42.23;100665.94;4989441;28;20775;-60
2022/07/27 07:31:58;;;;;;;4.25;2.42;;;;;;;22.04;41.86;100666.03;4993800;28;20054;-60
2022/07/27 07:34:26;;;;;;;2.17;1.40;;;;;;;21.84;42.10;100665.44;4993747;28;20483;-60
2022/07/27 07:36:53;;;;;;;3.65;1.83;;;;;;;21.84;41.53;100665.44;4993980;28;20050;-60
2022/07/27 07:39:20;;;;;;;3.65;1.75;;;;;;;21.88;41.85;100671.97;4991917;28;20046;-61
2022/07/27 07:41:49;;;;;;;4.50;1.33;;;;;;;21.92;41.16;100659.81;4989649;28;20061;-60
2022/07/27 07:44:16;;;;;;;2.58;1.30;;;;;;;22.29;40.80;100659.84;4993692;28;20054;-60
2022/07/27 07:46:43;;;;;;;3.35;1.30;;;;;;;22.04;40.29;100666.03;4993670;28;20062;-60
2022/07/27 07:49:11;;;;;;;2.45;0.80;;;;;;;22.25;39.00;100665.47;4992647;28;20046;-59
2022/07/27 07:51:38;;;;;;;3.63;0.85;;;;;;;22.08;39.46;100663.25;4974544;28;20059;-60
2022/07/27 07:54:05;;;;;;;3.88;1.00;;;;;;;21.85;39.71;100661.38;4974123;28;20059;-60
2022/07/27 07:56:33;;;;;;;2.45;0.85;;;;;;;22.72;39.09;100667.94;4974098;28;20055;-60
2022/07/27 07:59:03;;;;;;;4.47;1.08;;;;;;;23.01;38.27;100658.44;4973726;28;20117;-60
2022/07/27 08:01:31;;;;;;;4.68;1.33;;;;;;;22.53;38.58;100669.81;4984068;28;20058;-60
2022/07/27 08:03:58;;;;;;;2.60;0.93;;;;;;;22.46;38.92;100676.22;4993425;28;20058;-59
2022/07/27 08:06:25;;;;;;;3.83;0.93;;;;;;;22.72;38.15;100674.47;4993493;28;20062;-60
2022/07/27 08:08:52;;;;;;;4.68;0.98;;;;;;;23.67;36.48;100666.16;4993462;28;20050;-60
2022/07/27 08:11:21;;;;;;;3.45;1.05;;;;;;;24.15;36.85;100659.41;4990508;28;20062;-60
2022/07/27 08:13:48;;;;;;;4.35;1.27;;;;;;;25.16;34.81;100663.13;4991889;28;20061;-60
2022/07/27 08:16:17;;;;;;;3.05;1.00;;;;;;;26.34;33.53;100651.25;4993477;28;20057;-60
2022/07/27 08:18:44;;;;;;;3.88;1.20;;;;;;;28.07;30.31;100647.44;4993375;28;20057;-60
2022/07/27 08:21:11;;;;;;;1.50;0.80;;;;;;;28.08;29.29;100655.63;4990562;28;20050;-61
2022/07/27 08:23:39;;;;;;;2.97;0.90;;;;;;;27.53;30.15;100651.00;4993190;28;20058;-60
2022/07/27 08:26:06;;;;;;;1.63;0.88;;;;;;;27.08;30.65;100657.56;4992780;28;20057;-60
2022/07/27 08:28:33;;;;;;;2.78;0.90;;;;;;;26.73;30.95;100658.72;4990709;28;20423;-60
2022/07/27 08:31:00;;;;;;;1.90;1.05;;;;;;;27.54;30.49;100653.44;4992250;28;20064;-61
2022/07/27 08:33:29;;;;;;;3.05;1.02;;;;;;;29.03;28.06;100653.69;4993023;28;20058;-60
2022/07/27 08:35:58;;;;;;;6.43;1.35;;;;;;;30.38;26.95;100653.41;4993001;28;20058;-60
2022/07/27 08:38:26;;;;;;;2.10;0.95;;;;;;;32.16;24.50;100649.78;4992981;28;20058;-61
2022/07/27 08:40:55;;;;;;;4.22;1.10;;;;;;;32.53;24.40;100653.97;4988803;28;20050;-61
2022/07/27 08:43:24;;;;;;;2.22;0.93;;;;;;;33.52;22.60;100650.94;4992777;28;20055;-61
2022/07/27 08:45:56;;;;;;;3.55;0.98;;;;;;;33.30;22.31;100653.78;4992584;28;20053;-61
2022/07/27 08:48:24;;;;;;;3.63;0.80;;;;;;;34.16;20.94;100655.53;4992732;28;20054;-62
2022/07/27 08:50:53;;;;;;;2.75;1.10;;;;;;;33.80;21.63;100656.91;4989442;28;20518;-62
2022/07/27 08:53:21;;;;;;;2.05;1.02;;;;;;;35.27;18.78;100647.19;4992333;28;20054;-60
2022/07/27 08:55:49;;;;;;;3.65;1.08;;;;;;;36.21;18.69;100647.41;4992727;28;20065;-61
2022/07/27 08:58:17;;;;;;;1.27;0.70;;;;;;;35.57;17.59;100645.41;4992550;28;20046;-61
2022/07/27 09:00:46;;;;;;;1.50;0.90;;;;;;;35.94;17.78;100640.34;4989787;28;20505;-61
2022/07/27 09:03:15;;;;;;;3.22;1.50;;;;;;;36.20;18.11;100645.78;4992243;28;20058;-61
2022/07/27 09:05:43;;;;;;;1.67;0.70;;;;;;;37.09;16.49;100642.56;4992727;28;20057;-61
2022/07/27 09:08:13;;;;;;;1.50;0.70;;;;;;;35.61;17.25;100646.03;4992460;28;20057;-61
2022/07/27 09:10:41;;;;;;;1.30;0.75;;;;;;;34.18;18.78;100652.97;4992453;28;20057;-61
2022/07/27 09:13:23;;;;;;;1.57;0.60;;;;;;;33.35;19.15;100647.44;4989180;28;20124;-61
2022/07/27 09:15:53;;;;;;;2.10;0.90;;;;;;;32.18;20.60;100653.03;4992318;28;20050;-62
2022/07/27 09:18:22;;;;;;;1.42;0.70;;;;;;;31.85;21.70;100658.13;4992095;28;20054;-60
2022/07/27 09:21:09;;;;;;;2.55;0.70;;;;;;;31.39;21.95;100658.19;4992693;28;20526;-61
2022/07/27 09:23:38;;;;;;;2.75;0.80;;;;;;;30.62;22.91;100660.63;4992281;28;20058;-61
2022/07/27 09:26:16;;;;;;;3.20;1.20;;;;;;;30.39;22.42;100661.59;4989623;28;20443;-61
2022/07/27 09:28:44;;;;;;;1.90;1.10;;;;;;;31.49;22.25;100656.31;4991883;28;20061;-61
2022/07/27 09:31:13;;;;;;;3.08;1.35;;;;;;;32.75;21.25;100659.81;4992646;28;20078;-60
2022/07/27 09:33:42;;;;;;;2.10;1.10;;;;;;;34.10;20.58;100666.09;4992571;28;20057;-61
2022/07/27 09:36:10;;;;;;;4.30;1.42;;;;;;;35.41;18.75;100654.44;4991454;28;20061;-61
2022/07/27 09:38:49;;;;;;;2.08;1.00;;;;;;;35.07;18.40;100657.13;4991187;28;20065;-61
2022/07/27 09:41:16;;;;;;;2.67;0.80;;;;;;;35.74;18.00;100654.56;4991845;28;20057;-61
2022/07/27 09:43:48;;;;;;;3.03;0.90;;;;;;;34.73;18.87;100659.00;4992172;28;20061;-61
2022/07/27 09:46:16;;;;;;;1.63;0.75;;;;;;;33.85;19.51;100662.13;4992212;28;20065;-61
2022/07/27 09:48:43;;;;;;;1.98;0.70;;;;;;;32.95;20.39;100662.44;4990518;28;20053;-60
2022/07/27 09:51:12;;;;;;;2.63;1.20;;;;;;;31.78;22.46;100667.81;4991286;28;20057;-61
2022/07/27 09:53:40;;;;;;;2.08;0.75;;;;;;;30.85;23.60;100661.69;4991913;28;20058;-61
2022/07/27 09:56:10;;;;;;;;;;;;;;;30.14;23.89;100665.81;4992856;28;20484;-61
2022/07/27 09:58:43;;;;;;;2.72;1.05;;;;;;;29.86;24.89;100669.31;4992345;28;20294;-60
2022/07/27 10:01:12;;;;;;;3.28;0.85;;;;;;;29.29;25.43;100672.09;4989505;28;20407;-60
2022/07/27 10:03:39;;;;;;;;;;;;;;;28.77;25.45;100674.63;4991397;28;20062;-60
2022/07/27 10:06:08;;;;;;;3.72;1.10;;;;;;;29.00;24.98;100666.06;4991875;28;20334;-60
2022/07/27 10:08:37;;;;;;;2.50;0.90;;;;;;;30.15;23.88;100670.34;4991959;28;20065;-60
2022/07/27 10:11:06;;;;;;;1.92;0.73;;;;;;;29.91;24.08;100669.63;4991711;28;20061;-60
2022/07/27 10:13:34;;;;;;;2.03;0.90;;;;;;;29.84;25.08;100675.53;4988859;28;20057;-60
2022/07/27 10:16:03;;;;;;;1.85;0.80;;;;;;;29.51;25.05;100675.34;4994968;28;20518;-60
2022/07/27 10:18:42;;;;;;;2.00;0.70;;;;;;;29.00;25.47;100673.81;4995410;28;20057;-60
2022/07/27 10:21:11;;;;;;;3.53;0.90;;;;;;;28.78;26.39;100685.69;4995728;28;20054;-60
2022/07/27 10:23:39;;;;;;;3.28;0.80;;;;;;;28.65;26.04;100685.47;4994348;28;20061;-60
2022/07/27 10:26:16;;;;;;;2.85;1.00;;;;;;;28.58;26.39;100676.19;4992303;28;20058;-60
2022/07/27 10:28:55;;;;;;;1.98;1.05;;;;;;;29.02;24.98;100683.63;4995363;28;20055;-60
2022/07/27 10:31:25;;;;;;;2.40;0.80;;;;;;;28.72;25.25;100678.81;4990539;28;20062;-60
2022/07/27 10:33:53;;;;;;;3.53;1.42;;;;;;;28.99;25.67;100681.63;4975602;28;20054;-60
2022/07/27 10:36:47;;;;;;;3.85;1.52;;;;;;;30.47;24.26;100673.72;4978007;28;20062;-60
2022/07/27 10:39:29;;;;;;;3.35;1.48;;;;;;;31.50;23.02;100669.47;4994173;28;20082;-60
2022/07/27 10:42:23;;;;;;;3.17;1.40;;;;;;;33.67;20.78;100670.66;4995251;28;20054;-61
2022/07/27 10:44:56;;;;;;;2.42;1.05;;;;;;;35.46;18.54;100659.56;4995051;28;20134;-62
2022/07/27 10:47:41;;;;;;;3.13;1.40;;;;;;;36.74;17.66;100646.81;4995057;28;20061;-61
2022/07/27 10:50:24;;;;;;;2.20;1.30;;;;;;;37.95;16.13;100644.53;4994541;28;20047;-61
2022/07/27 10:52:55;;;;;;;2.50;0.90;;;;;;;37.75;16.45;100648.13;4992325;28;20051;-61
2022/07/27 10:55:45;;;;;;;5.10;1.02;;;;;;;36.33;17.38;100655.09;4994590;28;20050;-61
2022/07/27 10:58:51;;;;;;;4.45;0.90;;;;;;;34.74;18.23;100654.03;4994696;28;20054;-61
2022/07/27 11:01:21;;;;;;;2.50;0.90;;;;;;;33.74;19.74;100664.59;4994551;28;20509;-61
2022/07/27 11:03:52;;;;;;;2.33;1.20;;;;;;;32.29;21.08;100658.44;4989861;28;20058;-60
2022/07/27 11:06:26;;;;;;;2.45;1.08;;;;;;;31.63;21.89;100664.53;4994459;28;20388;-61
2022/07/27 11:08:56;;;;;;;2.70;1.10;;;;;;;31.13;22.47;100660.16;4994002;28;20069;-60
2022/07/27 11:11:25;;;;;;;1.48;0.80;;;;;;;30.76;23.00;100665.19;4994299;28;20414;-60
2022/07/27 11:13:56;;;;;;;3.38;0.93;;;;;;;30.38;23.96;100664.91;4991641;28;20050;-62
2022/07/27 11:16:24;;;;;;;2.47;1.33;;;;;;;32.06;22.04;100654.63;4988919;28;20057;-60
2022/07/27 11:18:57;;;;;;;1.65;0.85;;;;;;;32.43;21.00;100657.19;4994302;28;20138;-60
2022/07/27 11:21:26;;;;;;;1.90;0.80;;;;;;;32.26;21.02;100663.06;4994131;28;20077;-61
2022/07/27 11:23:56;;;;;;;3.72;1.23;;;;;;;32.06;21.58;100659.56;4991261;28;20399;-59
2022/07/27 11:26:25;;;;;;;3.22;0.90;;;;;;;31.19;22.60;100655.47;4994082;28;20061;-60
2022/07/27 11:28:54;;;;;;;1.92;0.85;;;;;;;30.26;22.94;100669.25;4993685;28;20391;-60
2022/07/27 11:31:22;;;;;;;3.13;1.10;;;;;;;29.77;24.00;100666.25;4994418;28;20051;-60
2022/07/27 11:33:55;;;;;;;3.40;1.10;;;;;;;29.31;24.65;100668.78;4991691;28;20054;-60
2022/07/27 11:36:34;;;;;;;2.95;1.27;;;;;;;28.79;25.40;100664.38;4994096;28;20051;-61
2022/07/27 11:39:01;;;;;;;3.33;0.95;;;;;;;28.51;25.20;100657.84;4993726;28;20054;-60
2022/07/27 11:41:30;;;;;;;3.33;1.15;;;;;;;28.05;25.53;100665.06;4993292;28;20057;-60